Time;durP1;ratioP1;P1;durP2;ratioP2;P2;SDS_P1;SDS_P2;PMS_P1;PMS_P2;Temp;Humidity;BMP_temperature;BMP_pressure;BME280_temperature;BME280_humidity;BME280_pressure;Samples;Min_cycle;Max_cycle;Signal;HPM_P1;HPM_P2
2021/11/21 00:01:57;;;;;;;55.50;32.10;;;9.00;99.90;;;;;;5083652;28;20229;-83
2021/11/21 00:04:24;;;;;;;57.03;32.23;;;9.00;99.90;;;;;;5085243;28;20198;-82
2021/11/21 00:06:50;;;;;;;56.30;30.77;;;9.00;99.90;;;;;;5087674;28;20229;-82
2021/11/21 00:09:19;;;;;;;56.27;30.93;;;9.00;99.90;;;;;;5087576;28;20229;-83
2021/11/21 00:11:46;;;;;;;54.20;29.77;;;9.10;99.90;;;;;;5083654;28;20265;-82
2021/11/21 00:14:13;;;;;;;53.83;30.03;;;9.00;99.90;;;;;;5081882;28;20199;-82
2021/11/21 00:16:40;;;;;;;52.00;29.70;;;9.00;99.90;;;;;;5087924;28;20237;-83
2021/11/21 00:19:07;;;;;;;50.57;28.77;;;9.00;99.90;;;;;;5082427;28;20223;-82
2021/11/21 00:21:34;;;;;;;48.97;27.63;;;9.00;99.90;;;;;;5079640;28;20256;-82
2021/11/21 00:24:01;;;;;;;51.23;29.30;;;9.00;99.90;;;;;;5083137;28;20241;-83
2021/11/21 00:26:30;;;;;;;49.87;27.37;;;9.00;99.90;;;;;;5083372;28;20204;-83
2021/11/21 00:28:57;;;;;;;51.50;29.07;;;9.00;99.90;;;;;;5086732;28;20209;-83
2021/11/21 00:31:23;;;;;;;46.70;27.07;;;9.00;99.90;;;;;;5080371;28;20254;-83
2021/11/21 00:33:50;;;;;;;52.13;29.57;;;9.00;99.90;;;;;;5087582;28;20266;-82
2021/11/21 00:36:17;;;;;;;51.90;29.37;;;9.00;99.90;;;;;;5082693;28;20231;-83
2021/11/21 00:38:44;;;;;;;50.50;29.53;;;9.00;99.90;;;;;;5088943;28;20236;-82
2021/11/21 00:41:11;;;;;;;51.23;30.67;;;9.00;99.90;;;;;;5089499;28;20248;-83
2021/11/21 00:43:40;;;;;;;49.07;27.30;;;8.90;99.90;;;;;;5088497;28;20225;-84
2021/11/21 00:46:07;;;;;;;48.03;26.37;;;9.00;99.90;;;;;;5089783;28;20217;-83
2021/11/21 00:48:37;;;;;;;48.23;27.20;;;9.00;99.90;;;;;;5090721;28;20252;-84
2021/11/21 00:51:04;;;;;;;47.57;25.97;;;8.90;99.90;;;;;;5089403;28;20229;-83
2021/11/21 00:53:32;;;;;;;44.57;25.60;;;8.90;99.90;;;;;;5086966;28;20262;-84
2021/11/21 00:56:03;;;;;;;44.00;25.10;;;8.90;99.90;;;;;;5089625;28;20206;-83
2021/11/21 00:58:30;;;;;;;43.20;25.30;;;8.90;99.90;;;;;;5088399;28;20206;-83
2021/11/21 01:00:59;;;;;;;47.90;25.37;;;8.90;99.90;;;;;;5088574;28;20253;-83
2021/11/21 01:03:27;;;;;;;46.17;25.80;;;8.80;99.90;;;;;;5086131;28;20202;-83
2021/11/21 01:05:56;;;;;;;44.40;24.87;;;8.90;99.90;;;;;;5088265;28;20236;-82
2021/11/21 01:08:24;;;;;;;46.00;26.53;;;8.90;99.90;;;;;;5086745;28;20709;-83
2021/11/21 01:10:56;;;;;;;46.20;25.67;;;8.90;99.90;;;;;;5086334;28;20274;-84
2021/11/21 01:13:24;;;;;;;43.03;24.40;;;8.90;99.90;;;;;;5088537;28;20206;-83
2021/11/21 01:15:52;;;;;;;46.53;25.60;;;8.80;99.90;;;;;;5087600;28;20206;-83
2021/11/21 01:18:21;;;;;;;47.70;26.53;;;8.90;99.90;;;;;;5085745;28;20202;-83
2021/11/21 01:20:48;;;;;;;46.97;26.73;;;8.90;99.90;;;;;;5087782;28;20316;-83
2021/11/21 01:23:17;;;;;;;44.97;27.23;;;9.00;99.90;;;;;;5087187;28;20221;-84
2021/11/21 01:25:46;;;;;;;44.43;26.60;;;8.90;99.90;;;;;;5087289;28;20221;-83
2021/11/21 01:28:14;;;;;;;51.10;29.93;;;8.80;99.90;;;;;;5087659;28;20218;-83
2021/11/21 01:30:42;;;;;;;49.57;28.87;;;8.80;99.90;;;;;;5085628;28;20264;-83
2021/11/21 01:33:09;;;;;;;45.60;25.93;;;8.90;99.90;;;;;;5087187;28;20218;-83
2021/11/21 01:35:41;;;;;;;45.80;27.20;;;8.80;99.90;;;;;;5086881;28;20877;-83
2021/11/21 01:38:08;;;;;;;45.67;26.07;;;8.80;99.90;;;;;;5085485;28;20203;-82
2021/11/21 01:40:41;;;;;;;47.63;27.10;;;8.80;99.90;;;;;;5086809;28;20281;-82
2021/11/21 01:43:10;;;;;;;44.57;24.83;;;8.80;99.90;;;;;;5084045;28;20229;-83
2021/11/21 01:45:38;;;;;;;45.10;25.93;;;8.80;99.90;;;;;;5087901;28;20205;-83
2021/11/21 01:48:05;;;;;;;44.63;24.30;;;8.70;99.90;;;;;;5086281;28;20242;-83
2021/11/21 01:50:34;;;;;;;41.40;23.50;;;8.80;99.90;;;;;;5082803;28;20225;-83
2021/11/21 01:53:04;;;;;;;44.63;24.63;;;8.80;99.90;;;;;;5087928;28;20226;-83
2021/11/21 01:55:31;;;;;;;42.03;23.43;;;8.80;99.90;;;;;;5086527;28;20233;-83
2021/11/21 01:57:59;;;;;;;40.03;22.47;;;8.80;99.90;;;;;;5084895;28;20262;-84
2021/11/21 02:00:30;;;;;;;42.80;23.77;;;8.80;99.90;;;;;;5076223;28;20301;-84
2021/11/21 02:03:00;;;;;;;43.90;23.20;;;8.80;99.90;;;;;;5086584;28;20229;-83
2021/11/21 02:05:28;;;;;;;40.47;23.00;;;8.80;99.90;;;;;;5088130;28;20207;-82
2021/11/21 02:07:55;;;;;;;41.97;23.53;;;8.80;99.90;;;;;;5087918;28;20267;-84
2021/11/21 02:10:24;;;;;;;45.03;25.80;;;8.80;99.90;;;;;;5090017;28;20237;-83
2021/11/21 02:12:51;;;;;;;42.97;23.60;;;8.70;99.90;;;;;;5088393;28;20237;-83
2021/11/21 02:15:23;;;;;;;44.53;24.17;;;8.80;99.90;;;;;;5090830;28;20205;-83
2021/11/21 02:17:51;;;;;;;43.33;23.57;;;8.80;99.90;;;;;;5081246;28;20289;-83
2021/11/21 02:20:24;;;;;;;42.93;24.03;;;8.80;99.90;;;;;;5080149;28;20248;-83
2021/11/21 02:22:50;;;;;;;38.80;21.83;;;8.70;99.90;;;;;;5080821;28;20209;-83
2021/11/21 02:25:18;;;;;;;39.97;21.97;;;8.70;99.90;;;;;;5081622;28;20229;-83
2021/11/21 02:27:45;;;;;;;41.57;22.30;;;8.70;99.90;;;;;;5080156;28;20206;-83
2021/11/21 02:30:12;;;;;;;40.17;23.03;;;8.70;99.90;;;;;;5078074;28;20230;-83
2021/11/21 02:32:46;;;;;;;41.40;23.77;;;8.70;99.90;;;;;;5080150;28;20654;-84
2021/11/21 02:35:13;;;;;;;44.07;22.93;;;8.80;99.90;;;;;;5077130;28;20273;-83
2021/11/21 02:37:43;;;;;;;43.27;24.10;;;8.60;99.90;;;;;;5078697;28;20210;-83
2021/11/21 03:29:06;;;;;;;27.97;16.73;;;8.70;99.90;;;;;;4894496;29;20234;-81
2021/11/21 03:48:12;;;;;;;30.03;17.23;;;8.70;99.90;;;;;;5046874;28;20230;-82
2021/11/21 03:54:58;;;;;;;30.57;16.33;;;8.80;99.90;;;;;;5059427;28;20202;-82
2021/11/21 04:00:53;;;;;;;27.73;16.07;;;8.80;99.90;;;;;;5087463;28;20242;-83
2021/11/21 04:03:21;;;;;;;29.67;15.90;;;8.80;99.90;;;;;;5083405;28;20210;-84
2021/11/21 04:05:48;;;;;;;30.30;17.03;;;8.80;99.90;;;;;;5087200;28;20213;-83
2021/11/21 04:08:15;;;;;;;30.60;17.37;;;8.80;99.90;;;;;;5088589;28;20806;-83
2021/11/21 04:10:42;;;;;;;30.40;16.57;;;8.70;99.90;;;;;;5085717;28;20687;-84
2021/11/21 04:13:11;;;;;;;30.43;17.97;;;8.80;99.90;;;;;;5087337;28;20233;-83
2021/11/21 04:15:38;;;;;;;29.77;16.40;;;8.80;99.90;;;;;;5085025;28;20229;-83
2021/11/21 04:18:05;;;;;;;28.87;16.73;;;8.70;99.90;;;;;;5084173;28;20234;-83
2021/11/21 04:20:32;;;;;;;29.67;15.53;;;8.70;99.90;;;;;;5085457;28;20368;-83
2021/11/21 04:22:59;;;;;;;30.03;17.77;;;8.80;99.90;;;;;;5084858;28;20233;-83
2021/11/21 04:25:26;;;;;;;29.63;16.77;;;8.80;99.90;;;;;;5085258;28;20252;-83
2021/11/21 04:27:53;;;;;;;29.20;17.30;;;8.80;99.90;;;;;;5083586;28;20234;-83
2021/11/21 04:30:21;;;;;;;29.53;17.20;;;8.80;99.90;;;;;;5085150;28;20248;-83
2021/11/21 04:32:49;;;;;;;27.57;15.60;;;8.80;99.90;;;;;;5083256;28;20203;-83
2021/11/21 04:35:19;;;;;;;31.03;17.40;;;8.80;99.90;;;;;;5084614;28;20194;-83
2021/11/21 04:37:47;;;;;;;31.10;17.47;;;8.70;99.90;;;;;;5085509;28;20281;-84
2021/11/21 04:40:16;;;;;;;35.07;18.33;;;8.80;99.90;;;;;;5081998;28;20273;-83
2021/11/21 04:42:44;;;;;;;28.93;16.80;;;8.90;99.90;;;;;;5078837;28;20852;-83
2021/11/21 04:45:11;;;;;;;32.87;19.10;;;8.70;99.90;;;;;;5084824;28;20373;-83
2021/11/21 04:47:42;;;;;;;30.97;17.83;;;8.70;99.90;;;;;;5084462;28;20210;-83
2021/11/21 04:50:12;;;;;;;32.33;19.10;;;8.70;99.90;;;;;;5083259;28;20803;-84
2021/11/21 04:52:40;;;;;;;31.70;19.27;;;8.70;99.90;;;;;;5085001;28;20226;-84
2021/11/21 04:55:10;;;;;;;31.90;17.30;;;8.70;99.90;;;;;;5084669;28;20198;-83
2021/11/21 04:57:56;;;;;;;31.90;18.00;;;8.60;99.90;;;;;;5091470;28;20212;-83
2021/11/21 05:00:28;;;;;;;31.30;17.83;;;8.60;99.90;;;;;;5089504;28;20217;-83
2021/11/21 05:02:56;;;;;;;37.33;19.67;;;8.60;99.90;;;;;;5091292;28;20285;-82
2021/11/21 05:05:24;;;;;;;31.97;18.13;;;8.60;99.90;;;;;;5089754;28;20240;-83
2021/11/21 05:07:51;;;;;;;32.53;18.97;;;8.60;99.90;;;;;;5090170;28;20249;-83
2021/11/21 05:10:19;;;;;;;30.57;17.20;;;8.60;99.90;;;;;;5086411;28;20281;-82
2021/11/21 05:12:46;;;;;;;33.47;17.90;;;8.60;99.90;;;;;;5089146;28;20198;-82
2021/11/21 05:15:15;;;;;;;31.23;18.00;;;8.60;99.90;;;;;;5088225;28;20187;-82
2021/11/21 05:17:45;;;;;;;32.20;17.60;;;8.50;99.90;;;;;;5086694;28;20210;-82
2021/11/21 05:20:14;;;;;;;29.03;15.97;;;8.60;99.90;;;;;;5090121;28;20211;-82
2021/11/21 05:22:41;;;;;;;31.57;16.83;;;8.60;99.90;;;;;;5089300;28;20260;-82
2021/11/21 05:25:09;;;;;;;28.63;16.90;;;8.60;99.90;;;;;;5084195;28;20651;-82
2021/11/21 05:27:35;;;;;;;29.40;17.77;;;8.60;99.90;;;;;;5089323;28;20257;-82
2021/11/21 05:30:03;;;;;;;30.07;17.77;;;8.70;99.90;;;;;;5089302;28;20248;-82
2021/11/21 05:32:30;;;;;;;28.70;16.87;;;8.60;99.90;;;;;;5087575;28;20229;-82
2021/11/21 05:34:57;;;;;;;30.13;16.63;;;8.60;99.90;;;;;;5088842;28;20202;-82
2021/11/21 05:37:25;;;;;;;34.30;18.33;;;8.60;99.90;;;;;;5090230;28;20209;-82
2021/11/21 05:39:52;;;;;;;32.93;18.33;;;8.60;99.90;;;;;;5086884;28;20221;-82
2021/11/21 05:42:19;;;;;;;31.73;18.70;;;8.80;99.90;;;;;;5089863;28;20198;-82
2021/11/21 05:44:46;;;;;;;30.20;18.17;;;8.60;99.90;;;;;;5087569;28;20214;-83
2021/11/21 05:47:13;;;;;;;31.70;18.00;;;8.60;99.90;;;;;;5086462;28;20656;-83
2021/11/21 05:49:39;;;;;;;30.00;17.73;;;8.60;99.90;;;;;;5087408;28;20242;-83
2021/11/21 05:52:07;;;;;;;29.17;18.40;;;8.70;99.90;;;;;;5086629;28;20226;-83
2021/11/21 05:54:35;;;;;;;28.70;17.30;;;8.70;99.90;;;;;;5083981;28;20277;-83
2021/11/21 05:57:02;;;;;;;28.70;17.60;;;8.70;99.90;;;;;;5087396;28;20206;-84
2021/11/21 05:59:29;;;;;;;28.63;16.80;;;8.60;99.90;;;;;;5087066;28;20784;-82
2021/11/21 06:01:56;;;;;;;26.80;16.37;;;8.60;99.90;;;;;;5082628;28;20320;-83
2021/11/21 06:04:23;;;;;;;25.67;16.73;;;8.70;99.90;;;;;;5080787;28;20245;-83
2021/11/21 06:06:49;;;;;;;24.60;15.27;;;8.60;99.90;;;;;;5079064;28;20289;-83
2021/11/21 06:09:16;;;;;;;27.60;16.13;;;8.60;99.90;;;;;;5076022;28;20308;-83
2021/11/21 06:11:45;;;;;;;26.47;15.47;;;8.60;99.90;;;;;;5076740;28;20761;-83
2021/11/21 06:14:12;;;;;;;25.73;15.03;;;8.60;99.90;;;;;;5078611;28;20232;-84
2021/11/21 06:16:39;;;;;;;25.87;14.17;;;8.60;99.90;;;;;;5077091;28;20208;-84
2021/11/21 06:19:05;;;;;;;25.80;15.27;;;8.70;99.90;;;;;;5074032;28;20259;-85
2021/11/21 06:21:32;;;;;;;26.00;15.03;;;8.60;99.90;;;;;;5072134;28;20222;-83
2021/11/21 06:23:59;;;;;;;26.67;15.70;;;8.60;99.90;;;;;;5072495;28;20199;-85
2021/11/21 06:26:26;;;;;;;28.43;15.57;;;8.60;99.90;;;;;;5072590;28;20220;-85
2021/11/21 06:28:56;;;;;;;27.13;15.57;;;8.60;99.90;;;;;;5072205;28;20214;-85
2021/11/21 06:31:23;;;;;;;26.37;15.07;;;8.60;99.90;;;;;;5071975;28;20313;-85
2021/11/21 06:33:50;;;;;;;28.67;16.30;;;8.70;99.90;;;;;;5070846;28;20262;-85
2021/11/21 06:36:17;;;;;;;25.60;16.03;;;8.70;99.90;;;;;;5071798;28;20206;-86
2021/11/21 06:38:44;;;;;;;26.60;16.03;;;8.70;99.90;;;;;;5074737;28;20281;-85
2021/11/21 06:41:11;;;;;;;26.30;15.93;;;8.80;99.90;;;;;;5074055;28;20281;-85
2021/11/21 06:43:38;;;;;;;27.27;16.63;;;8.70;99.90;;;;;;5075388;28;20194;-86
2021/11/21 06:46:06;;;;;;;26.57;15.93;;;8.80;99.90;;;;;;5074530;28;20204;-85
2021/11/21 06:48:34;;;;;;;27.80;16.57;;;8.70;99.90;;;;;;5074367;28;20202;-85
2021/11/21 06:51:01;;;;;;;25.70;16.77;;;8.70;99.90;;;;;;5073516;28;20233;-85
2021/11/21 06:53:28;;;;;;;27.73;16.77;;;8.70;99.90;;;;;;5075528;28;20283;-85
2021/11/21 06:55:55;;;;;;;27.13;16.27;;;8.70;99.90;;;;;;5073446;28;20206;-85
2021/11/21 06:58:22;;;;;;;27.77;16.60;;;8.80;99.90;;;;;;5072705;28;20264;-84
2021/11/21 07:00:49;;;;;;;28.53;16.30;;;8.70;99.90;;;;;;5074675;28;20301;-83
2021/11/21 07:03:17;;;;;;;28.63;16.63;;;8.80;99.90;;;;;;5073515;28;20212;-84
2021/11/21 07:05:44;;;;;;;24.57;15.07;;;8.70;99.90;;;;;;5079777;28;20273;-84
2021/11/21 07:08:11;;;;;;;26.27;16.63;;;8.70;99.90;;;;;;5076874;28;20633;-83
2021/11/21 07:10:39;;;;;;;23.97;14.93;;;8.70;99.90;;;;;;5077331;28;20324;-83
2021/11/21 07:13:06;;;;;;;24.70;15.33;;;8.60;99.90;;;;;;5077513;28;20263;-82
2021/11/21 07:15:33;;;;;;;25.50;16.00;;;8.60;99.90;;;;;;5078448;28;20274;-83
2021/11/21 07:18:00;;;;;;;24.67;13.90;;;8.60;99.90;;;;;;5081794;28;20245;-84
2021/11/21 07:20:28;;;;;;;23.83;14.60;;;8.60;99.90;;;;;;5081785;28;20222;-84
2021/11/21 07:22:55;;;;;;;23.10;13.87;;;8.60;99.90;;;;;;5075800;28;20195;-83
2021/11/21 07:25:23;;;;;;;22.53;13.53;;;8.60;99.90;;;;;;5085752;28;20194;-82
2021/11/21 07:27:51;;;;;;;24.90;14.80;;;8.60;99.90;;;;;;5087147;28;20209;-83
2021/11/21 07:30:21;;;;;;;22.20;13.40;;;8.60;99.90;;;;;;5083627;28;20385;-83
2021/11/21 07:32:48;;;;;;;23.23;13.37;;;8.60;99.90;;;;;;5086450;28;20662;-83
2021/11/21 07:35:18;;;;;;;22.37;12.50;;;8.60;99.90;;;;;;5082048;28;20217;-82
2021/11/21 07:37:47;;;;;;;21.37;12.57;;;8.60;99.90;;;;;;5074057;28;20270;-82
2021/11/21 07:40:16;;;;;;;20.57;12.47;;;8.60;99.90;;;;;;5086693;28;20226;-82
2021/11/21 07:42:44;;;;;;;19.50;11.23;;;8.60;99.90;;;;;;5085640;28;20697;-82
2021/11/21 07:45:12;;;;;;;18.77;11.10;;;8.50;99.90;;;;;;5077822;28;20285;-82
2021/11/21 07:47:41;;;;;;;18.43;10.83;;;8.60;99.90;;;;;;5082676;28;20198;-83
2021/11/21 07:50:09;;;;;;;17.40;10.53;;;8.60;99.90;;;;;;5087263;28;20249;-83
2021/11/21 07:52:37;;;;;;;17.70;9.60;;;8.60;99.90;;;;;;5086923;28;20202;-83
2021/11/21 07:55:07;;;;;;;18.23;10.37;;;8.70;99.90;;;;;;5081591;28;20261;-83
2021/11/21 07:57:35;;;;;;;16.87;9.87;;;8.70;99.90;;;;;;5085820;28;20210;-82
2021/11/21 08:00:02;;;;;;;14.87;9.30;;;8.70;99.90;;;;;;5086273;28;20213;-81
2021/11/21 08:02:29;;;;;;;16.57;9.20;;;8.70;99.90;;;;;;5078769;28;20711;-83
2021/11/21 08:04:56;;;;;;;14.77;8.67;;;8.80;99.90;;;;;;5086411;28;20217;-83
2021/11/21 08:07:23;;;;;;;16.23;10.13;;;8.80;99.90;;;;;;5085471;28;20206;-83
2021/11/21 08:09:50;;;;;;;17.50;10.07;;;8.80;99.90;;;;;;5083868;28;20230;-83
2021/11/21 08:12:19;;;;;;;14.50;8.73;;;8.90;99.90;;;;;;5087516;28;20321;-84
2021/11/21 08:14:46;;;;;;;16.03;9.20;;;8.90;99.90;;;;;;5090035;28;20341;-84
2021/11/21 08:17:15;;;;;;;14.73;8.57;;;8.90;99.90;;;;;;5087664;28;20222;-84
2021/11/21 08:19:44;;;;;;;15.10;8.70;;;8.90;99.90;;;;;;5086086;28;20206;-84
2021/11/21 08:22:11;;;;;;;14.13;8.67;;;9.00;99.90;;;;;;5088115;28;20253;-83
2021/11/21 08:24:38;;;;;;;13.17;8.17;;;9.00;99.90;;;;;;5083638;28;20723;-83
2021/11/21 08:27:06;;;;;;;14.90;8.63;;;9.00;99.90;;;;;;5087338;28;20206;-83
2021/11/21 08:29:34;;;;;;;15.77;8.40;;;9.00;99.90;;;;;;5085513;28;20200;-83
2021/11/21 08:32:01;;;;;;;15.60;9.23;;;9.00;99.90;;;;;;5086816;28;20254;-83
2021/11/21 08:34:28;;;;;;;13.60;8.07;;;9.00;99.90;;;;;;5084993;28;20242;-85
2021/11/21 08:36:55;;;;;;;11.90;7.23;;;9.00;99.90;;;;;;5083650;28;20210;-83
2021/11/21 08:39:24;;;;;;;15.47;8.80;;;9.10;99.90;;;;;;5083751;28;20222;-83
2021/11/21 08:41:52;;;;;;;14.23;8.70;;;9.20;99.90;;;;;;5085994;28;20282;-82
2021/11/21 08:44:19;;;;;;;13.63;7.80;;;9.20;99.90;;;;;;5086731;28;20230;-83
2021/11/21 08:46:47;;;;;;;14.57;7.80;;;9.20;99.90;;;;;;5084898;28;20728;-82
2021/11/21 08:49:15;;;;;;;12.97;7.10;;;9.30;99.90;;;;;;5082088;28;20221;-84
2021/11/21 08:51:44;;;;;;;10.63;6.83;;;9.40;99.90;;;;;;5084793;28;20289;-83
2021/11/21 08:54:11;;;;;;;7.67;5.17;;;9.40;99.90;;;;;;5081489;28;20293;-83
2021/11/21 08:56:38;;;;;;;10.40;6.63;;;9.40;99.90;;;;;;5079829;28;20285;-83
2021/11/21 08:59:07;;;;;;;8.63;5.20;;;9.30;99.90;;;;;;5084136;28;20232;-83
2021/11/21 09:01:34;;;;;;;8.17;5.53;;;9.30;99.90;;;;;;5085525;28;20230;-83
2021/11/21 09:04:02;;;;;;;6.87;5.07;;;9.30;99.90;;;;;;5080191;28;20296;-82
2021/11/21 09:06:30;;;;;;;9.13;5.60;;;9.40;99.90;;;;;;5075072;28;20285;-84
2021/11/21 09:08:57;;;;;;;7.30;5.00;;;9.30;99.90;;;;;;5074235;28;20679;-81
2021/11/21 09:11:24;;;;;;;6.47;4.67;;;9.30;99.90;;;;;;5076831;28;20227;-81
2021/11/21 09:13:52;;;;;;;8.93;6.20;;;9.40;99.90;;;;;;5079228;28;20298;-81
2021/11/21 09:16:19;;;;;;;7.30;5.23;;;9.30;99.90;;;;;;5078499;28;20248;-82
2021/11/21 09:18:46;;;;;;;9.77;6.47;;;9.30;99.90;;;;;;5070877;28;20263;-82
2021/11/21 09:21:14;;;;;;;11.10;6.57;;;9.30;99.90;;;;;;5071573;28;20228;-82
2021/11/21 09:23:42;;;;;;;8.47;5.87;;;9.30;99.90;;;;;;5079550;28;20198;-82
2021/11/21 09:26:10;;;;;;;8.60;6.07;;;9.30;99.90;;;;;;5083004;28;20292;-81
2021/11/21 09:28:37;;;;;;;8.87;5.87;;;9.30;99.90;;;;;;5074771;28;20229;-81
2021/11/21 09:31:04;;;;;;;9.53;6.13;;;9.30;99.90;;;;;;5073398;28;20912;-81
2021/11/21 09:33:31;;;;;;;10.50;6.20;;;9.30;99.90;;;;;;5068791;28;20337;-79
2021/11/21 09:35:58;;;;;;;9.60;6.20;;;9.30;99.90;;;;;;5074328;28;20241;-82
2021/11/21 09:38:27;;;;;;;10.03;6.20;;;9.30;99.90;;;;;;5069052;28;20206;-81
2021/11/21 09:40:55;;;;;;;11.13;6.50;;;9.30;99.90;;;;;;5068547;28;20223;-82
2021/11/21 09:43:22;;;;;;;11.37;7.03;;;9.20;99.90;;;;;;5068202;28;20587;-83
2021/11/21 09:45:50;;;;;;;12.10;6.30;;;9.20;99.90;;;;;;5067016;28;20683;-82
2021/11/21 09:48:17;;;;;;;9.80;6.60;;;9.30;99.90;;;;;;5065759;28;20293;-82
2021/11/21 09:50:45;;;;;;;10.47;6.63;;;9.30;99.90;;;;;;5069521;28;20229;-82
2021/11/21 09:53:14;;;;;;;11.77;7.03;;;9.20;99.90;;;;;;5065394;28;20241;-82
2021/11/21 09:55:43;;;;;;;11.47;7.10;;;9.20;99.90;;;;;;5068532;28;20210;-82
2021/11/21 09:58:10;;;;;;;11.93;7.30;;;9.20;99.90;;;;;;5074378;28;20301;-82
2021/11/21 10:00:37;;;;;;;11.87;6.77;;;9.20;99.90;;;;;;5071187;28;20297;-82
2021/11/21 10:03:07;;;;;;;10.77;6.70;;;9.10;99.90;;;;;;5076953;28;20658;-83
2021/11/21 10:05:37;;;;;;;10.97;6.47;;;9.20;99.90;;;;;;5070389;28;20363;-83
2021/11/21 10:08:07;;;;;;;10.10;6.13;;;9.20;99.90;;;;;;5049100;28;20238;-83
2021/11/21 10:10:43;;;;;;;9.67;5.77;;;9.20;99.90;;;;;;5053014;28;20291;-83
2021/11/21 10:13:40;;;;;;;11.83;7.10;;;9.30;99.90;;;;;;5066694;28;20270;-82
2021/11/21 10:16:23;;;;;;;14.50;8.80;;;9.50;99.90;;;;;;5025791;28;20555;-84
2021/11/21 10:18:52;;;;;;;15.43;8.10;;;9.60;99.90;;;;;;5068744;28;20212;-83
2021/11/21 10:21:20;;;;;;;9.90;6.57;;;9.60;99.90;;;;;;5068077;28;20214;-83
2021/11/21 10:23:48;;;;;;;9.43;5.30;;;9.60;99.90;;;;;;5074279;28;20229;-82
2021/11/21 10:26:23;;;;;;;9.73;5.10;;;9.60;99.90;;;;;;5069795;28;20671;-83
2021/11/21 10:28:52;;;;;;;7.80;4.40;;;9.60;99.90;;;;;;5075021;28;20301;-83
2021/11/21 10:31:21;;;;;;;7.83;4.37;;;9.70;99.90;;;;;;5071683;28;20282;-84
2021/11/21 10:33:52;;;;;;;7.20;3.70;;;9.70;99.90;;;;;;5070528;28;20236;-84
2021/11/21 10:36:22;;;;;;;5.17;3.80;;;9.60;99.90;;;;;;5071532;28;20206;-83
2021/11/21 10:39:13;;;;;;;8.37;3.87;;;9.70;99.90;;;;;;5068974;28;20225;-81
2021/11/21 10:42:02;;;;;;;7.70;3.90;;;9.80;99.90;;;;;;5074604;28;20218;-81
2021/11/21 10:44:29;;;;;;;7.00;4.00;;;9.80;99.90;;;;;;5072434;28;20233;-81
2021/11/21 10:46:59;;;;;;;8.27;4.20;;;10.00;99.90;;;;;;5074865;28;20531;-82
2021/11/21 10:49:34;;;;;;;5.90;3.47;;;10.00;99.90;;;;;;5072674;28;20229;-82
2021/11/21 10:52:13;;;;;;;10.30;4.07;;;10.00;99.90;;;;;;5063250;28;20237;-82
2021/11/21 10:54:45;;;;;;;7.43;4.37;;;10.00;99.90;;;;;;5063276;28;20297;-82
2021/11/21 10:57:16;;;;;;;9.73;4.37;;;9.90;99.90;;;;;;5070287;28;20206;-82
2021/11/21 10:59:49;;;;;;;7.47;4.40;;;9.90;99.90;;;;;;5069117;28;20234;-82
2021/11/21 11:02:22;;;;;;;8.77;4.47;;;9.90;99.90;;;;;;5070844;28;20233;-81
2021/11/21 11:05:09;;;;;;;9.20;4.60;;;9.90;99.90;;;;;;5075919;28;20282;-82
2021/11/21 11:07:40;;;;;;;15.17;4.83;;;9.90;99.90;;;;;;5072654;28;20202;-81
2021/11/21 11:10:12;;;;;;;7.17;4.10;;;10.00;99.90;;;;;;5070731;28;20210;-81
2021/11/21 11:12:41;;;;;;;9.07;4.60;;;9.90;99.90;;;;;;5070706;28;20260;-82
2021/11/21 11:15:09;;;;;;;9.37;4.93;;;10.00;99.90;;;;;;5070900;28;20698;-81
2021/11/21 11:17:37;;;;;;;8.50;4.27;;;10.00;99.90;;;;;;5078615;28;20619;-82
2021/11/21 11:20:07;;;;;;;12.83;5.70;;;9.90;99.90;;;;;;5074958;28;20210;-82
2021/11/21 11:22:34;;;;;;;8.37;4.57;;;10.00;99.90;;;;;;5077904;28;20236;-82
2021/11/21 11:25:04;;;;;;;14.07;5.77;;;10.00;99.90;;;;;;5070624;28;20658;-81
2021/11/21 11:27:44;;;;;;;12.23;5.10;;;10.00;99.90;;;;;;5074952;28;20706;-81
2021/11/21 11:30:11;;;;;;;8.80;4.60;;;10.10;99.90;;;;;;5072324;28;20294;-81
2021/11/21 11:32:40;;;;;;;11.17;5.10;;;10.10;99.90;;;;;;5068883;28;20249;-82
2021/11/21 11:35:27;;;;;;;11.77;5.23;;;10.10;99.90;;;;;;5072503;28;20245;-81
2021/11/21 11:37:56;;;;;;;12.37;5.00;;;10.20;99.90;;;;;;5070335;28;20293;-82
2021/11/21 11:40:52;;;;;;;12.77;5.13;;;10.20;99.90;;;;;;5071713;28;20245;-81
2021/11/21 11:43:43;;;;;;;14.63;5.20;;;10.10;99.90;;;;;;5070316;28;20203;-81
2021/11/21 11:46:25;;;;;;;14.13;5.50;;;10.10;99.90;;;;;;5074102;28;20214;-81
2021/11/21 11:48:54;;;;;;;16.03;6.07;;;10.20;99.90;;;;;;5075229;28;20363;-79
2021/11/21 11:51:48;;;;;;;13.47;6.23;;;10.20;99.90;;;;;;5072603;28;20253;-79
2021/11/21 11:54:23;;;;;;;9.43;4.63;;;10.20;99.90;;;;;;5073556;28;20210;-79
2021/11/21 11:56:52;;;;;;;11.73;5.03;;;10.20;99.90;;;;;;5069138;28;20222;-79
2021/11/21 11:59:30;;;;;;;11.23;5.60;;;10.20;99.90;;;;;;5074417;28;20213;-79
2021/11/21 12:02:13;;;;;;;11.10;4.87;;;10.20;99.90;;;;;;5074467;28;20451;-81
2021/11/21 12:05:47;;;;;;;15.23;4.80;;;10.20;99.90;;;;;;5079112;28;20270;-81
2021/11/21 12:15:35;;;;;;;15.90;4.73;;;10.30;99.90;;;;;;4952697;28;20237;-81
2021/11/21 12:49:40;;;;;;;12.10;3.90;;;10.20;99.90;;;;;;4820313;29;20270;-81
2021/11/21 13:08:50;;;;;;;25.10;11.97;;;9.10;99.90;;;;;;5016111;28;20593;-82
2021/11/21 13:28:38;;;;;;;15.93;4.80;;;9.80;99.90;;;;;;4902621;29;20211;-81
2021/11/21 13:31:24;;;;;;;12.50;5.77;;;9.70;99.90;;;;;;5020949;28;20240;-81
2021/11/21 13:34:02;;;;;;;16.27;5.83;;;9.70;99.90;;;;;;5079441;28;20313;-82
2021/11/21 13:36:40;;;;;;;10.27;4.23;;;9.70;99.90;;;;;;5081641;28;20232;-82
2021/11/21 13:39:47;;;;;;;14.90;4.57;;;9.70;99.90;;;;;;5082486;28;20214;-81
2021/11/21 13:42:27;;;;;;;12.73;3.97;;;9.60;99.90;;;;;;5080182;28;20214;-81
2021/11/21 13:44:58;;;;;;;10.00;3.70;;;9.50;99.90;;;;;;5081130;28;20442;-82
2021/11/21 13:47:45;;;;;;;18.97;4.20;;;9.50;99.90;;;;;;5058309;28;20239;-80
2021/11/21 13:50:35;;;;;;;9.43;3.63;;;9.50;99.90;;;;;;5077342;28;20249;-82
2021/11/21 13:53:04;;;;;;;10.43;3.73;;;9.30;99.90;;;;;;5064993;28;20245;-81
2021/11/21 13:55:31;;;;;;;13.83;4.20;;;9.30;99.90;;;;;;5082138;28;20206;-81
2021/11/21 13:57:59;;;;;;;16.80;5.80;;;9.40;99.90;;;;;;5082730;28;20560;-81
2021/11/21 14:00:29;;;;;;;11.87;4.60;;;9.20;99.90;;;;;;5083349;28;20249;-83
2021/11/21 14:02:58;;;;;;;10.83;4.67;;;9.20;99.90;;;;;;5078800;28;20621;-82
2021/11/21 14:05:29;;;;;;;13.27;4.63;;;9.10;99.90;;;;;;5080682;28;20206;-82
2021/11/21 14:07:57;;;;;;;9.23;4.83;;;9.10;99.90;;;;;;5078897;28;20432;-82
2021/11/21 14:10:27;;;;;;;11.47;3.27;;;9.10;99.90;;;;;;5077667;28;20234;-82
2021/11/21 14:13:06;;;;;;;10.67;4.10;;;9.00;99.90;;;;;;5077189;28;20226;-83
2021/11/21 14:15:35;;;;;;;12.93;3.77;;;9.00;99.90;;;;;;5077568;28;20339;-82
2021/11/21 14:18:02;;;;;;;10.57;3.17;;;9.00;99.90;;;;;;5078284;28;20206;-82
2021/11/21 14:20:31;;;;;;;9.30;3.00;;;9.00;99.90;;;;;;5077480;28;20593;-83
2021/11/21 14:23:03;;;;;;;9.47;3.53;;;8.90;99.90;;;;;;5074939;28;20210;-83
2021/11/21 14:25:31;;;;;;;11.83;3.47;;;8.90;99.90;;;;;;5080386;28;20210;-82
2021/11/21 14:28:07;;;;;;;11.43;2.70;;;8.80;99.90;;;;;;5079377;28;20225;-83
2021/11/21 14:30:40;;;;;;;8.20;2.43;;;8.80;99.90;;;;;;5079309;28;20292;-83
2021/11/21 14:33:15;;;;;;;9.50;2.53;;;8.70;99.90;;;;;;5080168;28;20257;-82
2021/11/21 14:35:44;;;;;;;11.10;3.20;;;8.60;99.90;;;;;;5079342;28;20232;-83
2021/11/21 14:38:13;;;;;;;13.77;3.03;;;8.60;99.90;;;;;;5081345;28;20241;-83
2021/11/21 14:40:42;;;;;;;11.83;3.00;;;8.60;99.90;;;;;;5079550;28;20321;-84
2021/11/21 14:43:11;;;;;;;14.10;3.40;;;8.60;99.90;;;;;;5082209;28;20208;-83
2021/11/21 14:45:41;;;;;;;11.53;2.73;;;8.60;99.90;;;;;;5077033;28;20214;-83
2021/11/21 14:48:08;;;;;;;7.97;2.40;;;8.50;99.90;;;;;;5078484;28;20248;-83
2021/11/21 14:50:35;;;;;;;12.27;3.17;;;8.50;99.90;;;;;;5079970;28;20214;-82
2021/11/21 14:53:03;;;;;;;9.67;2.53;;;8.50;99.90;;;;;;5078941;28;20225;-83
2021/11/21 14:55:37;;;;;;;12.70;2.90;;;8.60;99.90;;;;;;5079236;28;20607;-83
2021/11/21 14:58:09;;;;;;;10.73;3.13;;;8.40;99.90;;;;;;5071653;28;20213;-82
2021/11/21 15:00:35;;;;;;;13.87;4.03;;;8.40;99.90;;;;;;5063523;28;20662;-82
2021/11/21 15:03:04;;;;;;;9.90;3.43;;;8.40;99.90;;;;;;5076519;28;20478;-82
2021/11/21 15:05:31;;;;;;;12.83;4.97;;;8.20;99.90;;;;;;5069263;28;20214;-82
2021/11/21 15:07:58;;;;;;;8.20;4.37;;;8.20;99.90;;;;;;5070496;28;20698;-82
2021/11/21 15:10:30;;;;;;;14.50;5.03;;;8.20;99.90;;;;;;5073369;28;20260;-83
2021/11/21 15:12:57;;;;;;;10.37;3.10;;;8.20;99.90;;;;;;5074286;28;20329;-83
2021/11/21 15:15:24;;;;;;;11.77;2.83;;;8.10;99.90;;;;;;5078045;28;20203;-82
2021/11/21 15:17:54;;;;;;;11.33;2.80;;;8.00;99.90;;;;;;5073167;28;20682;-82
2021/11/21 15:20:22;;;;;;;11.53;2.90;;;8.00;99.90;;;;;;5065196;28;20234;-82
2021/11/21 15:22:49;;;;;;;13.83;3.97;;;7.80;99.90;;;;;;5072414;28;20325;-83